Mia-s — V2EI7 — position and weather

sailwx.info

Track history (hours):
 
Tides and Currents Weather Stations Pressure Air Temp Water Temp Dewpoint Dewpoint Depression Visibility Wind Speed Wind Dir Waves Ship Positions

Mia-s

Last reported at 2014-Oct-28 03:11 UTC. Time now 2014-Oct-30 15:20 UTC.
Position N 48°33' W 126°31'.

Length 190 m; draft 12.2 m.

Type: Cargo ship. MMSI: 305442000.

Date/timePositionNaut miles runAvg speedWind from/ knotsBaromVisibWave heightAir tempDewpointWater temp
2014-Oct-28 03:11N 48°33' W 126°31'7 9.3
2014-Oct-28 02:23N 48°32' W 126°20'910.6
2014-Oct-28 01:33N 48°32' W 126°06'1111.3
2014-Oct-28 00:33N 48°31' W 125°50'1211.9
2014-Oct-27 23:34N 48°32' W 125°32'1212.2
2014-Oct-27 22:32N 48°32' W 125°13'1212.3
2014-Oct-27 21:33N 48°31' W 124°55'1212.0
2014-Oct-27 20:33N 48°29' W 124°37'1212.5
2014-Oct-27 19:33N 48°24' W 124°20'1313.2
2014-Oct-27 18:33N 48°19' W 124°01'1613.0
2014-Oct-27 17:21N 48°16' W 123°38'911.0
2014-Oct-27 16:33N 48°20' W 123°26'1110.9
2014-Oct-27 15:34N 48°25' W 123°12'1312.9
2014-Oct-27 14:34N 48°38' W 123°15'9 9.3
2014-Oct-27 13:33N 48°45' W 123°06'9 8.6
2014-Oct-27 12:33N 48°54' W 123°08'1312.9
2014-Oct-27 11:33N 49°03' W 123°22'1212.4
2014-Oct-27 10:34N 49°15' W 123°21'1010.3
2014-Oct-27 09:34N 49°18' W 123°06'2 1.6
2014-Oct-27 08:32N 49°18' W 123°04'0 0.0
2014-Oct-27 07:32N 49°18' W 123°04'0 0.0
2014-Oct-27 06:32N 49°18' W 123°04'0 0.0
2014-Oct-27 05:32N 49°18' W 123°04'0 0.0
2014-Oct-27 04:32N 49°18' W 123°04'0 0.0
2014-Oct-27 03:29N 49°18' W 123°04'0 0.0
2014-Oct-27 02:32N 49°18' W 123°04'0 0.0
2014-Oct-27 01:32N 49°18' W 123°04'0 0.0
2014-Oct-27 00:29N 49°18' W 123°04'0 0.0
2014-Oct-26 23:32N 49°18' W 123°04'0 0.0
2014-Oct-26 22:32N 49°18' W 123°04'0 0.0
2014-Oct-26 21:32N 49°18' W 123°04'0 0.0
2014-Oct-26 20:32N 49°18' W 123°04'0 0.0
2014-Oct-26 19:32N 49°18' W 123°04'0 0.0
2014-Oct-26 18:32N 49°18' W 123°04'0 0.0
2014-Oct-26 17:32N 49°18' W 123°04'0 0.0
2014-Oct-26 16:32N 49°18' W 123°04'0 0.0
2014-Oct-26 15:32N 49°18' W 123°04'0 0.0
2014-Oct-26 14:32N 49°18' W 123°04'0 0.0
2014-Oct-26 13:32N 49°18' W 123°04'0 0.0
2014-Oct-26 12:32N 49°18' W 123°04'0 0.0
2014-Oct-26 11:32N 49°18' W 123°04'0 0.0
2014-Oct-26 10:32N 49°18' W 123°04'0 0.0
2014-Oct-26 09:32N 49°18' W 123°04'0 0.0
2014-Oct-26 08:32N 49°18' W 123°04'0 0.0
2014-Oct-26 07:29N 49°18' W 123°04'0 0.0
2014-Oct-26 06:32N 49°18' W 123°04'0 0.0
2014-Oct-26 05:32N 49°18' W 123°04'0 0.0
2014-Oct-26 04:32N 49°18' W 123°04'0 0.0
2014-Oct-26 03:32N 49°18' W 123°04'0 0.0
2014-Oct-26 02:32N 49°18' W 123°04'0 0.0
2014-Oct-26 01:29N 49°18' W 123°04'0 0.0
2014-Oct-26 00:32N 49°18' W 123°04'0 0.0
2014-Oct-25 23:26N 49°18' W 123°04'0 0.0
2014-Oct-25 22:32N 49°18' W 123°04'0 0.0
2014-Oct-25 21:32N 49°18' W 123°04'0 0.0
2014-Oct-25 20:32N 49°18' W 123°04'0 0.0
2014-Oct-25 19:32N 49°18' W 123°04'0 0.0
2014-Oct-25 18:32N 49°18' W 123°04'0 0.0
2014-Oct-25 17:32N 49°18' W 123°04'0 0.0
2014-Oct-25 16:32N 49°18' W 123°04'0 0.0
2014-Oct-25 15:32N 49°18' W 123°04'0 0.0
2014-Oct-25 14:32N 49°18' W 123°04'0 0.0
2014-Oct-25 13:32N 49°18' W 123°04'0 0.0
2014-Oct-25 12:29N 49°18' W 123°04'0 0.0
2014-Oct-25 11:32N 49°18' W 123°04'0 0.0
2014-Oct-25 10:32N 49°18' W 123°04'0 0.0
2014-Oct-25 09:32N 49°18' W 123°04'0 0.0
2014-Oct-25 08:32N 49°18' W 123°04'0 0.0
2014-Oct-25 07:32N 49°18' W 123°04'0 0.0
2014-Oct-25 06:32N 49°18' W 123°04'0 0.0
2014-Oct-25 05:32N 49°18' W 123°04'0 0.0
2014-Oct-25 04:32N 49°18' W 123°04'0 0.0
2014-Oct-25 03:32N 49°18' W 123°04'0 0.0
2014-Oct-25 02:32N 49°18' W 123°04'0 0.0
2014-Oct-25 01:32N 49°18' W 123°04'0 0.0
2014-Oct-25 00:29N 49°18' W 123°04'1 1.3
2014-Oct-24 23:33N 49°18' W 123°05'4 4.5
2014-Oct-24 22:33N 49°18' W 123°12'0 0.0
2014-Oct-24 21:30N 49°18' W 123°12'0 0.0
2014-Oct-24 20:33N 49°18' W 123°12'0 0.1
2014-Oct-24 19:33N 49°18' W 123°12'0 0.2
2014-Oct-24 18:33N 49°18' W 123°13'0 0.1
2014-Oct-24 17:33N 49°18' W 123°13'0 0.0
2014-Oct-24 16:30N 49°18' W 123°13'0 0.0
2014-Oct-24 15:33N 49°18' W 123°13'0 0.0
2014-Oct-24 14:33N 49°18' W 123°13'0 0.0
2014-Oct-24 13:33N 49°18' W 123°13'0 0.0
2014-Oct-24 12:33N 49°18' W 123°13'0 0.0
2014-Oct-24 11:33N 49°18' W 123°13'0 0.0
2014-Oct-24 10:33N 49°18' W 123°13'0 0.1
2014-Oct-24 09:33N 49°18' W 123°12'0 0.1
2014-Oct-24 08:33N 49°18' W 123°12'0 0.0
2014-Oct-24 07:33N 49°18' W 123°12'0 0.0
2014-Oct-24 06:33N 49°18' W 123°12'0 0.0
2014-Oct-24 05:33N 49°18' W 123°12'4 4.4
2014-Oct-24 04:33N 49°18' W 123°06'1 0.8
2014-Oct-24 03:33N 49°17' W 123°05'0 0.0
2014-Oct-24 02:33N 49°17' W 123°05'0 0.0
2014-Oct-24 01:33N 49°17' W 123°05'0 0.0
2014-Oct-24 00:33N 49°17' W 123°05'0 0.0
2014-Oct-23 23:33N 49°17' W 123°05'0 0.0
2014-Oct-23 22:33N 49°17' W 123°05'0 0.0
2014-Oct-23 21:33N 49°17' W 123°05'0 0.0
2014-Oct-23 20:33N 49°17' W 123°05'0 0.0
2014-Oct-23 19:30N 49°17' W 123°05'0 0.0
2014-Oct-23 18:33N 49°17' W 123°05'0 0.0
2014-Oct-23 17:33N 49°17' W 123°05'0 0.0
2014-Oct-23 16:33N 49°17' W 123°05'0 0.0
2014-Oct-23 15:33N 49°17' W 123°05'0 0.0
2014-Oct-23 14:33N 49°17' W 123°05'0 0.0
2014-Oct-23 13:33N 49°17' W 123°05'0 0.0
2014-Oct-23 12:33N 49°17' W 123°05'0 0.0
2014-Oct-23 11:33N 49°17' W 123°05'0 0.0
2014-Oct-23 10:33N 49°17' W 123°05'0 0.0
2014-Oct-23 09:33N 49°17' W 123°05'0 0.0
2014-Oct-23 08:33N 49°17' W 123°05'0 0.0
2014-Oct-23 07:33N 49°17' W 123°05'0 0.0
2014-Oct-23 06:33N 49°17' W 123°05'0 0.0
2014-Oct-23 05:33N 49°17' W 123°05'0 0.0
2014-Oct-23 04:33N 49°17' W 123°05'0 0.0
2014-Oct-23 03:33N 49°17' W 123°05'0 0.0
2014-Oct-23 02:33N 49°17' W 123°05'0 0.0
2014-Oct-23 01:33N 49°17' W 123°05'0 0.0
2014-Oct-23 00:33N 49°17' W 123°05'0 0.0
2014-Oct-22 23:33N 49°17' W 123°05'0 0.0
2014-Oct-22 22:33N 49°17' W 123°05'0 0.0
2014-Oct-22 21:33N 49°17' W 123°05'0 0.0
2014-Oct-22 20:33N 49°17' W 123°05'0 0.0
2014-Oct-22 19:33N 49°17' W 123°05'0 0.0
2014-Oct-22 18:33N 49°17' W 123°05'0 0.0
2014-Oct-22 17:33N 49°17' W 123°05'0 0.0
2014-Oct-22 16:33N 49°17' W 123°05'0 0.0
2014-Oct-22 15:33N 49°17' W 123°05'0 0.0
2014-Oct-22 14:33N 49°17' W 123°05'0 0.0
2014-Oct-22 13:33N 49°17' W 123°05'0 0.0
2014-Oct-22 12:33N 49°17' W 123°05'0 0.0
2014-Oct-22 11:33N 49°17' W 123°05'0 0.0
2014-Oct-22 10:33N 49°17' W 123°05'0 0.0
2014-Oct-22 09:33N 49°17' W 123°05'0 0.0
2014-Oct-22 08:33N 49°17' W 123°05'0 0.0
2014-Oct-22 07:33N 49°17' W 123°05'0 0.0
2014-Oct-22 06:33N 49°17' W 123°05'0 0.0
2014-Oct-22 05:33N 49°17' W 123°05'0 0.0
2014-Oct-22 04:33N 49°17' W 123°05'0 0.0
2014-Oct-22 03:33N 49°17' W 123°05'0 0.0
2014-Oct-22 02:30N 49°17' W 123°05'0 0.0
2014-Oct-22 01:33N 49°17' W 123°05'0 0.0
2014-Oct-22 00:33N 49°17' W 123°05'0 0.0
2014-Oct-21 23:33N 49°17' W 123°05'2 1.8
2014-Oct-21 22:34N 49°18' W 123°07'4 4.1
2014-Oct-21 21:31N 49°18' W 123°14'0 0.0
2014-Oct-21 20:28N 49°18' W 123°14'0 0.0
2014-Oct-21 19:31N 49°18' W 123°14'0 0.1
2014-Oct-21 18:28N 49°18' W 123°14'0 0.0
2014-Oct-21 17:31N 49°18' W 123°14'0 0.1
2014-Oct-21 16:31N 49°18' W 123°14'0 0.1
2014-Oct-21 15:31N 49°18' W 123°13'0 0.0
2014-Oct-21 14:31N 49°18' W 123°13'0 0.0
2014-Oct-21 13:31N 49°18' W 123°14'0 0.0
2014-Oct-21 12:31N 49°18' W 123°13'0 0.1
2014-Oct-21 11:31N 49°18' W 123°13'0 0.1
2014-Oct-21 10:31N 49°18' W 123°13'0 0.0
2014-Oct-21 09:31N 49°18' W 123°13'0 0.0
2014-Oct-21 08:31N 49°18' W 123°13'0 0.0
2014-Oct-21 07:31N 49°18' W 123°13'0 0.0
2014-Oct-21 06:31N 49°18' W 123°13'0 0.1
2014-Oct-21 05:28N 49°18' W 123°13'0 0.1
2014-Oct-21 04:31N 49°18' W 123°14'0 0.0
2014-Oct-21 03:31N 49°18' W 123°14'0 0.0
2014-Oct-21 02:28N 49°18' W 123°14'0 0.1
2014-Oct-21 01:31N 49°18' W 123°14'0 0.0
2014-Oct-21 00:28N 49°18' W 123°14'0 0.1
2014-Oct-20 23:31N 49°18' W 123°14'0 0.0
2014-Oct-20 22:31N 49°18' W 123°14'0 0.1
2014-Oct-20 21:31N 49°18' W 123°14'0 0.1
2014-Oct-20 20:31N 49°18' W 123°14'0 0.0
2014-Oct-20 19:31N 49°18' W 123°13'0 0.1
2014-Oct-20 18:28N 49°18' W 123°13'0 0.1
2014-Oct-20 17:31N 49°18' W 123°13'0 0.1
2014-Oct-20 16:31N 49°18' W 123°13'0 0.1
2014-Oct-20 15:31N 49°18' W 123°13'0 0.0
2014-Oct-20 14:31N 49°18' W 123°13'0 0.1
2014-Oct-20 13:31N 49°18' W 123°14'0 0.1
2014-Oct-20 12:31N 49°18' W 123°14'0 0.2
2014-Oct-20 11:28N 49°18' W 123°13'0 0.1
2014-Oct-20 10:31N 49°18' W 123°13'0 0.0
2014-Oct-20 09:31N 49°18' W 123°13'0 0.0
2014-Oct-20 08:31N 49°18' W 123°13'0 0.0
2014-Oct-20 07:31N 49°18' W 123°13'0 0.0
2014-Oct-20 06:31N 49°18' W 123°13'0 0.1
2014-Oct-20 05:31N 49°18' W 123°13'0 0.1
2014-Oct-20 04:31N 49°18' W 123°14'0 0.0
2014-Oct-20 03:28N 49°18' W 123°14'0 0.0
2014-Oct-20 02:28N 49°18' W 123°14'0 0.0
2014-Oct-20 01:31N 49°18' W 123°14'0 0.0
2014-Oct-20 00:28N 49°18' W 123°14'0 0.0
2014-Oct-19 23:28N 49°18' W 123°14'2 2.0
2014-Oct-19 22:33N 49°19' W 123°12'3 3.1
2014-Oct-19 21:31N 49°19' W 123°07'0 0.0
2014-Oct-19 20:32N 49°19' W 123°07'0 0.0
2014-Oct-19 19:32N 49°19' W 123°07'0 0.0
2014-Oct-19 18:32N 49°19' W 123°07'0 0.0
2014-Oct-19 17:32N 49°19' W 123°07'0 0.0
2014-Oct-19 16:32N 49°19' W 123°07'0 0.0
2014-Oct-19 15:32N 49°19' W 123°07'0 0.0
2014-Oct-19 14:32N 49°19' W 123°07'0 0.0
2014-Oct-19 13:32N 49°19' W 123°07'0 0.0
2014-Oct-19 12:32N 49°19' W 123°07'0 0.0
2014-Oct-19 11:32N 49°19' W 123°07'0 0.0
2014-Oct-19 10:29N 49°19' W 123°07'0 0.0
2014-Oct-19 09:32N 49°19' W 123°07'0 0.0
2014-Oct-19 08:32N 49°19' W 123°07'0 0.0
2014-Oct-19 07:32N 49°19' W 123°07'0 0.0
2014-Oct-19 06:32N 49°19' W 123°07'0 0.0
2014-Oct-19 05:32N 49°19' W 123°07'0 0.0
2014-Oct-19 04:32N 49°19' W 123°07'0 0.0
2014-Oct-19 03:32N 49°19' W 123°07'0 0.0
2014-Oct-19 02:32N 49°19' W 123°07'0 0.0
2014-Oct-19 01:32N 49°19' W 123°07'0 0.0
2014-Oct-19 00:32N 49°19' W 123°07'0 0.0
2014-Oct-18 23:32N 49°19' W 123°07'0 0.0
2014-Oct-18 22:29N 49°19' W 123°07'0 0.0
2014-Oct-18 21:32N 49°19' W 123°07'0 0.0
2014-Oct-18 20:32N 49°19' W 123°07'0 0.0
2014-Oct-18 19:32N 49°19' W 123°07'0 0.0
2014-Oct-18 18:32N 49°19' W 123°07'0 0.0
2014-Oct-18 17:32N 49°19' W 123°07'0 0.0
2014-Oct-18 16:29N 49°19' W 123°07'0 0.0
2014-Oct-18 15:32N 49°19' W 123°07'0 0.0
2014-Oct-18 14:32N 49°19' W 123°07'0 0.0
2014-Oct-18 13:32N 49°19' W 123°07'0 0.0
2014-Oct-18 12:32N 49°19' W 123°07'0 0.0
2014-Oct-18 11:32N 49°19' W 123°07'0 0.0
2014-Oct-18 10:32N 49°19' W 123°07'0 0.0
2014-Oct-18 09:32N 49°19' W 123°07'0 0.0
2014-Oct-18 08:32N 49°19' W 123°07'0 0.0
2014-Oct-18 07:32N 49°19' W 123°07'0 0.0
2014-Oct-18 06:32N 49°19' W 123°07'0 0.0
2014-Oct-18 05:32N 49°19' W 123°07'0 0.0
2014-Oct-18 04:32N 49°19' W 123°07'0 0.0
2014-Oct-18 03:32N 49°19' W 123°07'  
Track history (hours):
 
Tides and Currents Weather Stations Pressure Air Temp Water Temp Dewpoint Dewpoint Depression Visibility Wind Speed Wind Dir Waves Ship Positions

Mia-s

Last reported at 2014-Oct-28 03:11 UTC. Time now 2014-Oct-30 15:20 UTC.
Position N 48°33' W 126°31'.

Length 190 m; draft 12.2 m.

Type: Cargo ship. MMSI: 305442000.

Date/timePositionNaut miles runAvg speedWind from/ knotsBaromVisibWave heightAir tempDewpointWater temp
2014-Oct-28 03:11N 48°33' W 126°31'7 9.3
2014-Oct-28 02:23N 48°32' W 126°20'910.6
2014-Oct-28 01:33N 48°32' W 126°06'1111.3
2014-Oct-28 00:33N 48°31' W 125°50'1211.9
2014-Oct-27 23:34N 48°32' W 125°32'1212.2
2014-Oct-27 22:32N 48°32' W 125°13'1212.3
2014-Oct-27 21:33N 48°31' W 124°55'1212.0
2014-Oct-27 20:33N 48°29' W 124°37'1212.5
2014-Oct-27 19:33N 48°24' W 124°20'1313.2
2014-Oct-27 18:33N 48°19' W 124°01'1613.0
2014-Oct-27 17:21N 48°16' W 123°38'911.0
2014-Oct-27 16:33N 48°20' W 123°26'1110.9
2014-Oct-27 15:34N 48°25' W 123°12'1312.9
2014-Oct-27 14:34N 48°38' W 123°15'9 9.3
2014-Oct-27 13:33N 48°45' W 123°06'9 8.6
2014-Oct-27 12:33N 48°54' W 123°08'1312.9
2014-Oct-27 11:33N 49°03' W 123°22'1212.4
2014-Oct-27 10:34N 49°15' W 123°21'1010.3
2014-Oct-27 09:34N 49°18' W 123°06'2 1.6
2014-Oct-27 08:32N 49°18' W 123°04'0 0.0
2014-Oct-27 07:32N 49°18' W 123°04'0 0.0
2014-Oct-27 06:32N 49°18' W 123°04'0 0.0
2014-Oct-27 05:32N 49°18' W 123°04'0 0.0
2014-Oct-27 04:32N 49°18' W 123°04'0 0.0
2014-Oct-27 03:29N 49°18' W 123°04'0 0.0
2014-Oct-27 02:32N 49°18' W 123°04'0 0.0
2014-Oct-27 01:32N 49°18' W 123°04'0 0.0
2014-Oct-27 00:29N 49°18' W 123°04'0 0.0
2014-Oct-26 23:32N 49°18' W 123°04'0 0.0
2014-Oct-26 22:32N 49°18' W 123°04'0 0.0
2014-Oct-26 21:32N 49°18' W 123°04'0 0.0
2014-Oct-26 20:32N 49°18' W 123°04'0 0.0
2014-Oct-26 19:32N 49°18' W 123°04'0 0.0
2014-Oct-26 18:32N 49°18' W 123°04'0 0.0
2014-Oct-26 17:32N 49°18' W 123°04'0 0.0
2014-Oct-26 16:32N 49°18' W 123°04'0 0.0
2014-Oct-26 15:32N 49°18' W 123°04'0 0.0
2014-Oct-26 14:32N 49°18' W 123°04'0 0.0
2014-Oct-26 13:32N 49°18' W 123°04'0 0.0
2014-Oct-26 12:32N 49°18' W 123°04'0 0.0
2014-Oct-26 11:32N 49°18' W 123°04'0 0.0
2014-Oct-26 10:32N 49°18' W 123°04'0 0.0
2014-Oct-26 09:32N 49°18' W 123°04'0 0.0
2014-Oct-26 08:32N 49°18' W 123°04'0 0.0
2014-Oct-26 07:29N 49°18' W 123°04'0 0.0
2014-Oct-26 06:32N 49°18' W 123°04'0 0.0
2014-Oct-26 05:32N 49°18' W 123°04'0 0.0
2014-Oct-26 04:32N 49°18' W 123°04'0 0.0
2014-Oct-26 03:32N 49°18' W 123°04'0 0.0
2014-Oct-26 02:32N 49°18' W 123°04'0 0.0
2014-Oct-26 01:29N 49°18' W 123°04'0 0.0
2014-Oct-26 00:32N 49°18' W 123°04'0 0.0
2014-Oct-25 23:26N 49°18' W 123°04'0 0.0
2014-Oct-25 22:32N 49°18' W 123°04'0 0.0
2014-Oct-25 21:32N 49°18' W 123°04'0 0.0
2014-Oct-25 20:32N 49°18' W 123°04'0 0.0
2014-Oct-25 19:32N 49°18' W 123°04'0 0.0
2014-Oct-25 18:32N 49°18' W 123°04'0 0.0
2014-Oct-25 17:32N 49°18' W 123°04'0 0.0
2014-Oct-25 16:32N 49°18' W 123°04'0 0.0
2014-Oct-25 15:32N 49°18' W 123°04'0 0.0
2014-Oct-25 14:32N 49°18' W 123°04'0 0.0
2014-Oct-25 13:32N 49°18' W 123°04'0 0.0
2014-Oct-25 12:29N 49°18' W 123°04'0 0.0
2014-Oct-25 11:32N 49°18' W 123°04'0 0.0
2014-Oct-25 10:32N 49°18' W 123°04'0 0.0
2014-Oct-25 09:32N 49°18' W 123°04'0 0.0
2014-Oct-25 08:32N 49°18' W 123°04'0 0.0
2014-Oct-25 07:32N 49°18' W 123°04'0 0.0
2014-Oct-25 06:32N 49°18' W 123°04'0 0.0
2014-Oct-25 05:32N 49°18' W 123°04'0 0.0
2014-Oct-25 04:32N 49°18' W 123°04'0 0.0
2014-Oct-25 03:32N 49°18' W 123°04'0 0.0
2014-Oct-25 02:32N 49°18' W 123°04'0 0.0
2014-Oct-25 01:32N 49°18' W 123°04'0 0.0
2014-Oct-25 00:29N 49°18' W 123°04'1 1.3
2014-Oct-24 23:33N 49°18' W 123°05'4 4.5
2014-Oct-24 22:33N 49°18' W 123°12'0 0.0
2014-Oct-24 21:30N 49°18' W 123°12'0 0.0
2014-Oct-24 20:33N 49°18' W 123°12'0 0.1
2014-Oct-24 19:33N 49°18' W 123°12'0 0.2
2014-Oct-24 18:33N 49°18' W 123°13'0 0.1
2014-Oct-24 17:33N 49°18' W 123°13'0 0.0
2014-Oct-24 16:30N 49°18' W 123°13'0 0.0
2014-Oct-24 15:33N 49°18' W 123°13'0 0.0
2014-Oct-24 14:33N 49°18' W 123°13'0 0.0
2014-Oct-24 13:33N 49°18' W 123°13'0 0.0
2014-Oct-24 12:33N 49°18' W 123°13'0 0.0
2014-Oct-24 11:33N 49°18' W 123°13'0 0.0
2014-Oct-24 10:33N 49°18' W 123°13'0 0.1
2014-Oct-24 09:33N 49°18' W 123°12'0 0.1
2014-Oct-24 08:33N 49°18' W 123°12'0 0.0
2014-Oct-24 07:33N 49°18' W 123°12'0 0.0
2014-Oct-24 06:33N 49°18' W 123°12'0 0.0
2014-Oct-24 05:33N 49°18' W 123°12'4 4.4
2014-Oct-24 04:33N 49°18' W 123°06'1 0.8
2014-Oct-24 03:33N 49°17' W 123°05'0 0.0
2014-Oct-24 02:33N 49°17' W 123°05'0 0.0
2014-Oct-24 01:33N 49°17' W 123°05'0 0.0
2014-Oct-24 00:33N 49°17' W 123°05'0 0.0
2014-Oct-23 23:33N 49°17' W 123°05'0 0.0
2014-Oct-23 22:33N 49°17' W 123°05'0 0.0
2014-Oct-23 21:33N 49°17' W 123°05'0 0.0
2014-Oct-23 20:33N 49°17' W 123°05'0 0.0
2014-Oct-23 19:30N 49°17' W 123°05'0 0.0
2014-Oct-23 18:33N 49°17' W 123°05'0 0.0
2014-Oct-23 17:33N 49°17' W 123°05'0 0.0
2014-Oct-23 16:33N 49°17' W 123°05'0 0.0
2014-Oct-23 15:33N 49°17' W 123°05'0 0.0
2014-Oct-23 14:33N 49°17' W 123°05'0 0.0
2014-Oct-23 13:33N 49°17' W 123°05'0 0.0
2014-Oct-23 12:33N 49°17' W 123°05'0 0.0
2014-Oct-23 11:33N 49°17' W 123°05'0 0.0
2014-Oct-23 10:33N 49°17' W 123°05'0 0.0
2014-Oct-23 09:33N 49°17' W 123°05'0 0.0
2014-Oct-23 08:33N 49°17' W 123°05'0 0.0
2014-Oct-23 07:33N 49°17' W 123°05'0 0.0
2014-Oct-23 06:33N 49°17' W 123°05'0 0.0
2014-Oct-23 05:33N 49°17' W 123°05'0 0.0
2014-Oct-23 04:33N 49°17' W 123°05'0 0.0
2014-Oct-23 03:33N 49°17' W 123°05'0 0.0
2014-Oct-23 02:33N 49°17' W 123°05'0 0.0
2014-Oct-23 01:33N 49°17' W 123°05'0 0.0
2014-Oct-23 00:33N 49°17' W 123°05'0 0.0
2014-Oct-22 23:33N 49°17' W 123°05'0 0.0
2014-Oct-22 22:33N 49°17' W 123°05'0 0.0
2014-Oct-22 21:33N 49°17' W 123°05'0 0.0
2014-Oct-22 20:33N 49°17' W 123°05'0 0.0
2014-Oct-22 19:33N 49°17' W 123°05'0 0.0
2014-Oct-22 18:33N 49°17' W 123°05'0 0.0
2014-Oct-22 17:33N 49°17' W 123°05'0 0.0
2014-Oct-22 16:33N 49°17' W 123°05'0 0.0
2014-Oct-22 15:33N 49°17' W 123°05'0 0.0
2014-Oct-22 14:33N 49°17' W 123°05'0 0.0
2014-Oct-22 13:33N 49°17' W 123°05'0 0.0
2014-Oct-22 12:33N 49°17' W 123°05'0 0.0
2014-Oct-22 11:33N 49°17' W 123°05'0 0.0
2014-Oct-22 10:33N 49°17' W 123°05'0 0.0
2014-Oct-22 09:33N 49°17' W 123°05'0 0.0
2014-Oct-22 08:33N 49°17' W 123°05'0 0.0
2014-Oct-22 07:33N 49°17' W 123°05'0 0.0
2014-Oct-22 06:33N 49°17' W 123°05'0 0.0
2014-Oct-22 05:33N 49°17' W 123°05'0 0.0
2014-Oct-22 04:33N 49°17' W 123°05'0 0.0
2014-Oct-22 03:33N 49°17' W 123°05'0 0.0
2014-Oct-22 02:30N 49°17' W 123°05'0 0.0
2014-Oct-22 01:33N 49°17' W 123°05'0 0.0
2014-Oct-22 00:33N 49°17' W 123°05'0 0.0
2014-Oct-21 23:33N 49°17' W 123°05'2 1.8
2014-Oct-21 22:34N 49°18' W 123°07'4 4.1
2014-Oct-21 21:31N 49°18' W 123°14'0 0.0
2014-Oct-21 20:28N 49°18' W 123°14'0 0.0
2014-Oct-21 19:31N 49°18' W 123°14'0 0.1
2014-Oct-21 18:28N 49°18' W 123°14'0 0.0
2014-Oct-21 17:31N 49°18' W 123°14'0 0.1
2014-Oct-21 16:31N 49°18' W 123°14'0 0.1
2014-Oct-21 15:31N 49°18' W 123°13'0 0.0
2014-Oct-21 14:31N 49°18' W 123°13'0 0.0
2014-Oct-21 13:31N 49°18' W 123°14'0 0.0
2014-Oct-21 12:31N 49°18' W 123°13'0 0.1
2014-Oct-21 11:31N 49°18' W 123°13'0 0.1
2014-Oct-21 10:31N 49°18' W 123°13'0 0.0
2014-Oct-21 09:31N 49°18' W 123°13'0 0.0
2014-Oct-21 08:31N 49°18' W 123°13'0 0.0
2014-Oct-21 07:31N 49°18' W 123°13'0 0.0
2014-Oct-21 06:31N 49°18' W 123°13'0 0.1
2014-Oct-21 05:28N 49°18' W 123°13'0 0.1
2014-Oct-21 04:31N 49°18' W 123°14'0 0.0
2014-Oct-21 03:31N 49°18' W 123°14'0 0.0
2014-Oct-21 02:28N 49°18' W 123°14'0 0.1
2014-Oct-21 01:31N 49°18' W 123°14'0 0.0
2014-Oct-21 00:28N 49°18' W 123°14'0 0.1
2014-Oct-20 23:31N 49°18' W 123°14'0 0.0
2014-Oct-20 22:31N 49°18' W 123°14'0 0.1
2014-Oct-20 21:31N 49°18' W 123°14'0 0.1
2014-Oct-20 20:31N 49°18' W 123°14'0 0.0
2014-Oct-20 19:31N 49°18' W 123°13'0 0.1
2014-Oct-20 18:28N 49°18' W 123°13'0 0.1
2014-Oct-20 17:31N 49°18' W 123°13'0 0.1
2014-Oct-20 16:31N 49°18' W 123°13'0 0.1
2014-Oct-20 15:31N 49°18' W 123°13'0 0.0
2014-Oct-20 14:31N 49°18' W 123°13'0 0.1
2014-Oct-20 13:31N 49°18' W 123°14'0 0.1
2014-Oct-20 12:31N 49°18' W 123°14'0 0.2
2014-Oct-20 11:28N 49°18' W 123°13'0 0.1
2014-Oct-20 10:31N 49°18' W 123°13'0 0.0
2014-Oct-20 09:31N 49°18' W 123°13'0 0.0
2014-Oct-20 08:31N 49°18' W 123°13'0 0.0
2014-Oct-20 07:31N 49°18' W 123°13'0 0.0
2014-Oct-20 06:31N 49°18' W 123°13'0 0.1
2014-Oct-20 05:31N 49°18' W 123°13'0 0.1
2014-Oct-20 04:31N 49°18' W 123°14'0 0.0
2014-Oct-20 03:28N 49°18' W 123°14'0 0.0
2014-Oct-20 02:28N 49°18' W 123°14'0 0.0
2014-Oct-20 01:31N 49°18' W 123°14'0 0.0
2014-Oct-20 00:28N 49°18' W 123°14'0 0.0
2014-Oct-19 23:28N 49°18' W 123°14'2 2.0
2014-Oct-19 22:33N 49°19' W 123°12'3 3.1
2014-Oct-19 21:31N 49°19' W 123°07'0 0.0
2014-Oct-19 20:32N 49°19' W 123°07'0 0.0
2014-Oct-19 19:32N 49°19' W 123°07'0 0.0
2014-Oct-19 18:32N 49°19' W 123°07'0 0.0
2014-Oct-19 17:32N 49°19' W 123°07'0 0.0
2014-Oct-19 16:32N 49°19' W 123°07'0 0.0
2014-Oct-19 15:32N 49°19' W 123°07'0 0.0
2014-Oct-19 14:32N 49°19' W 123°07'0 0.0
2014-Oct-19 13:32N 49°19' W 123°07'0 0.0
2014-Oct-19 12:32N 49°19' W 123°07'0 0.0
2014-Oct-19 11:32N 49°19' W 123°07'0 0.0
2014-Oct-19 10:29N 49°19' W 123°07'0 0.0
2014-Oct-19 09:32N 49°19' W 123°07'0 0.0
2014-Oct-19 08:32N 49°19' W 123°07'0 0.0
2014-Oct-19 07:32N 49°19' W 123°07'0 0.0
2014-Oct-19 06:32N 49°19' W 123°07'0 0.0
2014-Oct-19 05:32N 49°19' W 123°07'0 0.0
2014-Oct-19 04:32N 49°19' W 123°07'0 0.0
2014-Oct-19 03:32N 49°19' W 123°07'0 0.0
2014-Oct-19 02:32N 49°19' W 123°07'0 0.0
2014-Oct-19 01:32N 49°19' W 123°07'0 0.0
2014-Oct-19 00:32N 49°19' W 123°07'0 0.0
2014-Oct-18 23:32N 49°19' W 123°07'0 0.0
2014-Oct-18 22:29N 49°19' W 123°07'0 0.0
2014-Oct-18 21:32N 49°19' W 123°07'0 0.0
2014-Oct-18 20:32N 49°19' W 123°07'0 0.0
2014-Oct-18 19:32N 49°19' W 123°07'0 0.0
2014-Oct-18 18:32N 49°19' W 123°07'0 0.0
2014-Oct-18 17:32N 49°19' W 123°07'0 0.0
2014-Oct-18 16:29N 49°19' W 123°07'0 0.0
2014-Oct-18 15:32N 49°19' W 123°07'0 0.0
2014-Oct-18 14:32N 49°19' W 123°07'0 0.0
2014-Oct-18 13:32N 49°19' W 123°07'0 0.0
2014-Oct-18 12:32N 49°19' W 123°07'0 0.0
2014-Oct-18 11:32N 49°19' W 123°07'0 0.0
2014-Oct-18 10:32N 49°19' W 123°07'0 0.0
2014-Oct-18 09:32N 49°19' W 123°07'0 0.0
2014-Oct-18 08:32N 49°19' W 123°07'0 0.0
2014-Oct-18 07:32N 49°19' W 123°07'0 0.0
2014-Oct-18 06:32N 49°19' W 123°07'0 0.0
2014-Oct-18 05:32N 49°19' W 123°07'0 0.0
2014-Oct-18 04:32N 49°19' W 123°07'0 0.0
2014-Oct-18 03:32N 49°19' W 123°07'  

Dump ship's entire track history